Terminal Aerodrome Forecast
Issued by NWS

Home | Current Version | Previous Version | Text Only | Print | Product List | Glossary On
Versions: 1 2 3 4 5 6 7 8 9 10 11 12 13 14 15
000
FTUS45 KTFX 281700
TAFHVR
TAF
KHVR 281726Z 2818/2918 04012KT P6SM OVC008
      TEMPO 2818/2822 2SM -SN BR OVC008
     FM282200 03011KT 6SM -SN OVC008
     FM290400 04008KT P6SM OVC035=

USA.gov is the U.S. government's official web portal to all federal, state and local government web resources and services.